sensor_id;sensor_type;location;lat;lon;timestamp;P1;durP1;ratioP1;P2;durP2;ratioP2
34711;SDS011;20941;42.408;25.634;2023-12-20T00:00:15;586.80;;;403.95;;
34711;SDS011;20941;42.408;25.634;2023-12-20T00:02:41;618.40;;;445.27;;
34711;SDS011;20941;42.408;25.634;2023-12-20T00:05:10;609.63;;;434.95;;
34711;SDS011;20941;42.408;25.634;2023-12-20T00:07:35;608.55;;;424.00;;
34711;SDS011;20941;42.408;25.634;2023-12-20T00:10:00;590.30;;;402.70;;
34711;SDS011;20941;42.408;25.634;2023-12-20T00:12:26;606.05;;;425.73;;
34711;SDS011;20941;42.408;25.634;2023-12-20T00:14:51;615.33;;;435.20;;
34711;SDS011;20941;42.408;25.634;2023-12-20T00:17:17;673.72;;;501.98;;
34711;SDS011;20941;42.408;25.634;2023-12-20T00:19:42;643.80;;;468.23;;
34711;SDS011;20941;42.408;25.634;2023-12-20T00:22:07;653.17;;;481.42;;
34711;SDS011;20941;42.408;25.634;2023-12-20T00:24:33;645.05;;;467.77;;
34711;SDS011;20941;42.408;25.634;2023-12-20T00:26:58;656.78;;;483.55;;
34711;SDS011;20941;42.408;25.634;2023-12-20T00:29:24;701.65;;;527.47;;
34711;SDS011;20941;42.408;25.634;2023-12-20T00:31:49;728.63;;;553.95;;
34711;SDS011;20941;42.408;25.634;2023-12-20T00:34:14;670.83;;;496.17;;
34711;SDS011;20941;42.408;25.634;2023-12-20T00:36:40;650.97;;;487.05;;
34711;SDS011;20941;42.408;25.634;2023-12-20T00:39:05;682.45;;;506.13;;
34711;SDS011;20941;42.408;25.634;2023-12-20T00:41:32;666.83;;;495.60;;
34711;SDS011;20941;42.408;25.634;2023-12-20T00:43:57;652.80;;;479.17;;
34711;SDS011;20941;42.408;25.634;2023-12-20T00:46:22;703.78;;;536.28;;
34711;SDS011;20941;42.408;25.634;2023-12-20T00:48:48;735.05;;;565.80;;
34711;SDS011;20941;42.408;25.634;2023-12-20T00:51:13;767.70;;;591.17;;
34711;SDS011;20941;42.408;25.634;2023-12-20T00:53:39;762.42;;;591.05;;
34711;SDS011;20941;42.408;25.634;2023-12-20T00:56:04;774.95;;;597.55;;
34711;SDS011;20941;42.408;25.634;2023-12-20T00:58:30;771.22;;;596.03;;
34711;SDS011;20941;42.408;25.634;2023-12-20T01:00:55;775.60;;;601.42;;
34711;SDS011;20941;42.408;25.634;2023-12-20T01:03:20;784.78;;;604.72;;
34711;SDS011;20941;42.408;25.634;2023-12-20T01:05:46;860.83;;;662.15;;
34711;SDS011;20941;42.408;25.634;2023-12-20T01:08:11;863.22;;;664.33;;
34711;SDS011;20941;42.408;25.634;2023-12-20T01:10:37;917.92;;;701.92;;
34711;SDS011;20941;42.408;25.634;2023-12-20T01:13:03;876.00;;;679.28;;
34711;SDS011;20941;42.408;25.634;2023-12-20T01:15:28;842.67;;;657.05;;
34711;SDS011;20941;42.408;25.634;2023-12-20T01:17:54;873.75;;;681.17;;
34711;SDS011;20941;42.408;25.634;2023-12-20T01:20:19;790.33;;;613.67;;
34711;SDS011;20941;42.408;25.634;2023-12-20T01:22:45;838.50;;;654.45;;
34711;SDS011;20941;42.408;25.634;2023-12-20T01:25:11;877.30;;;682.80;;
34711;SDS011;20941;42.408;25.634;2023-12-20T01:27:36;847.40;;;659.88;;
34711;SDS011;20941;42.408;25.634;2023-12-20T01:30:02;475.45;;;303.05;;
34711;SDS011;20941;42.408;25.634;2023-12-20T01:32:27;431.88;;;270.35;;
34711;SDS011;20941;42.408;25.634;2023-12-20T01:34:52;490.48;;;319.90;;
34711;SDS011;20941;42.408;25.634;2023-12-20T01:37:18;517.88;;;344.63;;
34711;SDS011;20941;42.408;25.634;2023-12-20T01:39:43;622.33;;;460.85;;
34711;SDS011;20941;42.408;25.634;2023-12-20T01:42:09;634.03;;;478.08;;
34711;SDS011;20941;42.408;25.634;2023-12-20T01:44:34;701.35;;;541.63;;
34711;SDS011;20941;42.408;25.634;2023-12-20T01:46:59;781.28;;;612.08;;
34711;SDS011;20941;42.408;25.634;2023-12-20T01:49:25;785.30;;;616.58;;
34711;SDS011;20941;42.408;25.634;2023-12-20T01:51:50;793.88;;;625.60;;
34711;SDS011;20941;42.408;25.634;2023-12-20T01:54:16;728.95;;;554.70;;
34711;SDS011;20941;42.408;25.634;2023-12-20T01:56:42;563.85;;;402.25;;
34711;SDS011;20941;42.408;25.634;2023-12-20T01:59:08;364.77;;;226.82;;
34711;SDS011;20941;42.408;25.634;2023-12-20T02:01:34;529.03;;;371.10;;
34711;SDS011;20941;42.408;25.634;2023-12-20T02:04:00;489.80;;;334.67;;
34711;SDS011;20941;42.408;25.634;2023-12-20T02:06:28;545.05;;;377.13;;
34711;SDS011;20941;42.408;25.634;2023-12-20T02:08:54;543.58;;;377.13;;
34711;SDS011;20941;42.408;25.634;2023-12-20T02:11:20;492.50;;;329.02;;
34711;SDS011;20941;42.408;25.634;2023-12-20T02:13:46;540.90;;;377.02;;
34711;SDS011;20941;42.408;25.634;2023-12-20T02:16:11;514.10;;;352.30;;
34711;SDS011;20941;42.408;25.634;2023-12-20T02:18:37;536.15;;;368.92;;
34711;SDS011;20941;42.408;25.634;2023-12-20T02:21:04;621.33;;;457.75;;
34711;SDS011;20941;42.408;25.634;2023-12-20T02:23:29;651.38;;;485.40;;
34711;SDS011;20941;42.408;25.634;2023-12-20T02:25:55;646.75;;;482.67;;
34711;SDS011;20941;42.408;25.634;2023-12-20T02:28:20;656.28;;;495.90;;
34711;SDS011;20941;42.408;25.634;2023-12-20T02:30:46;624.50;;;464.83;;
34711;SDS011;20941;42.408;25.634;2023-12-20T02:33:12;685.75;;;525.83;;
34711;SDS011;20941;42.408;25.634;2023-12-20T02:35:39;726.20;;;565.60;;
34711;SDS011;20941;42.408;25.634;2023-12-20T02:38:04;698.05;;;544.20;;
34711;SDS011;20941;42.408;25.634;2023-12-20T02:40:30;683.88;;;524.85;;
34711;SDS011;20941;42.408;25.634;2023-12-20T02:42:55;678.05;;;522.88;;
34711;SDS011;20941;42.408;25.634;2023-12-20T02:45:20;767.70;;;598.38;;
34711;SDS011;20941;42.408;25.634;2023-12-20T02:47:46;720.75;;;555.97;;
34711;SDS011;20941;42.408;25.634;2023-12-20T02:50:11;762.30;;;594.60;;
34711;SDS011;20941;42.408;25.634;2023-12-20T02:52:37;815.40;;;637.25;;
34711;SDS011;20941;42.408;25.634;2023-12-20T02:55:02;865.03;;;674.90;;
34711;SDS011;20941;42.408;25.634;2023-12-20T02:57:27;843.45;;;656.47;;
34711;SDS011;20941;42.408;25.634;2023-12-20T02:59:53;862.17;;;668.63;;
34711;SDS011;20941;42.408;25.634;2023-12-20T03:02:18;827.83;;;644.05;;
34711;SDS011;20941;42.408;25.634;2023-12-20T03:04:44;907.75;;;703.75;;
34711;SDS011;20941;42.408;25.634;2023-12-20T03:07:09;900.17;;;697.50;;
34711;SDS011;20941;42.408;25.634;2023-12-20T03:09:34;859.30;;;667.95;;
34711;SDS011;20941;42.408;25.634;2023-12-20T03:12:03;870.40;;;677.05;;
34711;SDS011;20941;42.408;25.634;2023-12-20T03:14:29;864.25;;;667.42;;
34711;SDS011;20941;42.408;25.634;2023-12-20T03:16:54;870.10;;;677.80;;
34711;SDS011;20941;42.408;25.634;2023-12-20T03:19:20;909.22;;;704.70;;
34711;SDS011;20941;42.408;25.634;2023-12-20T03:21:45;945.53;;;730.17;;
34711;SDS011;20941;42.408;25.634;2023-12-20T03:24:11;921.95;;;715.17;;
34711;SDS011;20941;42.408;25.634;2023-12-20T03:26:36;722.42;;;535.45;;
34711;SDS011;20941;42.408;25.634;2023-12-20T03:29:01;700.83;;;527.38;;
34711;SDS011;20941;42.408;25.634;2023-12-20T03:31:27;707.80;;;538.47;;
34711;SDS011;20941;42.408;25.634;2023-12-20T03:33:52;741.97;;;571.00;;
34711;SDS011;20941;42.408;25.634;2023-12-20T03:36:19;729.92;;;557.60;;
34711;SDS011;20941;42.408;25.634;2023-12-20T03:38:44;692.33;;;521.05;;
34711;SDS011;20941;42.408;25.634;2023-12-20T03:41:09;748.72;;;573.17;;
34711;SDS011;20941;42.408;25.634;2023-12-20T03:43:35;868.25;;;671.95;;
34711;SDS011;20941;42.408;25.634;2023-12-20T03:46:00;857.28;;;664.92;;
34711;SDS011;20941;42.408;25.634;2023-12-20T03:48:28;892.47;;;693.38;;
34711;SDS011;20941;42.408;25.634;2023-12-20T03:50:54;764.13;;;589.75;;
34711;SDS011;20941;42.408;25.634;2023-12-20T03:53:19;761.88;;;595.45;;
34711;SDS011;20941;42.408;25.634;2023-12-20T03:55:44;747.55;;;578.25;;
34711;SDS011;20941;42.408;25.634;2023-12-20T03:58:10;754.70;;;579.90;;
34711;SDS011;20941;42.408;25.634;2023-12-20T04:00:35;731.95;;;563.05;;
34711;SDS011;20941;42.408;25.634;2023-12-20T04:03:00;827.65;;;643.70;;
34711;SDS011;20941;42.408;25.634;2023-12-20T04:05:26;789.38;;;612.13;;
34711;SDS011;20941;42.408;25.634;2023-12-20T04:07:51;900.20;;;695.95;;
34711;SDS011;20941;42.408;25.634;2023-12-20T04:10:17;869.58;;;676.83;;
34711;SDS011;20941;42.408;25.634;2023-12-20T04:12:42;948.00;;;732.60;;
34711;SDS011;20941;42.408;25.634;2023-12-20T04:15:08;923.67;;;716.35;;
34711;SDS011;20941;42.408;25.634;2023-12-20T04:17:35;836.15;;;649.42;;
34711;SDS011;20941;42.408;25.634;2023-12-20T04:20:01;863.25;;;666.85;;
34711;SDS011;20941;42.408;25.634;2023-12-20T04:22:27;856.05;;;663.97;;
34711;SDS011;20941;42.408;25.634;2023-12-20T04:24:52;800.95;;;619.33;;
34711;SDS011;20941;42.408;25.634;2023-12-20T04:27:18;897.10;;;691.55;;
34711;SDS011;20941;42.408;25.634;2023-12-20T04:29:43;932.15;;;713.75;;
34711;SDS011;20941;42.408;25.634;2023-12-20T04:32:08;921.30;;;710.55;;
34711;SDS011;20941;42.408;25.634;2023-12-20T04:34:34;960.35;;;735.42;;
34711;SDS011;20941;42.408;25.634;2023-12-20T04:36:59;932.40;;;716.83;;
34711;SDS011;20941;42.408;25.634;2023-12-20T04:39:26;946.08;;;728.95;;
34711;SDS011;20941;42.408;25.634;2023-12-20T04:41:52;898.58;;;691.00;;
34711;SDS011;20941;42.408;25.634;2023-12-20T04:44:17;921.45;;;708.88;;
34711;SDS011;20941;42.408;25.634;2023-12-20T04:46:43;933.00;;;718.47;;
34711;SDS011;20941;42.408;25.634;2023-12-20T04:49:08;925.88;;;710.92;;
34711;SDS011;20941;42.408;25.634;2023-12-20T04:51:34;926.38;;;705.20;;
34711;SDS011;20941;42.408;25.634;2023-12-20T04:53:59;966.45;;;737.30;;
34711;SDS011;20941;42.408;25.634;2023-12-20T04:56:25;1023.03;;;781.13;;
34711;SDS011;20941;42.408;25.634;2023-12-20T04:58:50;1105.93;;;837.30;;
34711;SDS011;20941;42.408;25.634;2023-12-20T05:01:16;1074.20;;;817.42;;
34711;SDS011;20941;42.408;25.634;2023-12-20T05:03:42;1079.13;;;820.05;;
34711;SDS011;20941;42.408;25.634;2023-12-20T05:06:07;1098.85;;;836.28;;
34711;SDS011;20941;42.408;25.634;2023-12-20T05:08:33;1091.60;;;836.45;;
34711;SDS011;20941;42.408;25.634;2023-12-20T05:10:58;1092.55;;;836.13;;
34711;SDS011;20941;42.408;25.634;2023-12-20T05:13:23;1039.03;;;793.17;;
34711;SDS011;20941;42.408;25.634;2023-12-20T05:15:49;1037.38;;;791.00;;
34711;SDS011;20941;42.408;25.634;2023-12-20T05:18:14;1125.38;;;865.72;;
34711;SDS011;20941;42.408;25.634;2023-12-20T05:20:40;1076.22;;;824.05;;
34711;SDS011;20941;42.408;25.634;2023-12-20T05:23:05;1091.03;;;830.55;;
34711;SDS011;20941;42.408;25.634;2023-12-20T05:25:31;1081.45;;;824.22;;
34711;SDS011;20941;42.408;25.634;2023-12-20T05:27:56;1096.22;;;828.75;;
34711;SDS011;20941;42.408;25.634;2023-12-20T05:30:22;1094.78;;;828.53;;
34711;SDS011;20941;42.408;25.634;2023-12-20T05:32:47;1082.82;;;819.35;;
34711;SDS011;20941;42.408;25.634;2023-12-20T05:35:13;1095.85;;;821.25;;
34711;SDS011;20941;42.408;25.634;2023-12-20T05:37:38;1115.05;;;846.30;;
34711;SDS011;20941;42.408;25.634;2023-12-20T05:40:04;1126.45;;;852.42;;
34711;SDS011;20941;42.408;25.634;2023-12-20T05:42:29;1109.18;;;834.33;;
34711;SDS011;20941;42.408;25.634;2023-12-20T05:44:55;1111.20;;;842.53;;
34711;SDS011;20941;42.408;25.634;2023-12-20T05:47:20;1167.93;;;896.70;;
34711;SDS011;20941;42.408;25.634;2023-12-20T05:49:45;1169.50;;;899.63;;
34711;SDS011;20941;42.408;25.634;2023-12-20T05:52:11;1161.22;;;899.97;;
34711;SDS011;20941;42.408;25.634;2023-12-20T05:54:36;1178.60;;;912.25;;
34711;SDS011;20941;42.408;25.634;2023-12-20T05:57:01;1171.70;;;907.92;;
34711;SDS011;20941;42.408;25.634;2023-12-20T05:59:27;1171.65;;;897.13;;
34711;SDS011;20941;42.408;25.634;2023-12-20T06:01:52;1172.10;;;897.63;;
34711;SDS011;20941;42.408;25.634;2023-12-20T06:04:20;1188.25;;;908.85;;
34711;SDS011;20941;42.408;25.634;2023-12-20T06:06:45;1156.55;;;875.78;;
34711;SDS011;20941;42.408;25.634;2023-12-20T06:09:10;1186.18;;;893.60;;
34711;SDS011;20941;42.408;25.634;2023-12-20T06:11:36;1166.25;;;876.72;;
34711;SDS011;20941;42.408;25.634;2023-12-20T06:14:01;1173.45;;;885.58;;
34711;SDS011;20941;42.408;25.634;2023-12-20T06:16:27;1193.93;;;901.42;;
34711;SDS011;20941;42.408;25.634;2023-12-20T06:18:52;1198.43;;;914.03;;
34711;SDS011;20941;42.408;25.634;2023-12-20T06:21:17;1196.78;;;910.08;;
34711;SDS011;20941;42.408;25.634;2023-12-20T06:23:43;1187.82;;;903.03;;
34711;SDS011;20941;42.408;25.634;2023-12-20T06:26:08;1208.38;;;920.03;;
34711;SDS011;20941;42.408;25.634;2023-12-20T06:28:34;1217.38;;;925.65;;
34711;SDS011;20941;42.408;25.634;2023-12-20T06:30:59;1221.22;;;929.40;;
34711;SDS011;20941;42.408;25.634;2023-12-20T06:33:25;1221.38;;;929.65;;
34711;SDS011;20941;42.408;25.634;2023-12-20T06:35:51;1218.30;;;929.00;;
34711;SDS011;20941;42.408;25.634;2023-12-20T06:38:17;1226.97;;;932.40;;
34711;SDS011;20941;42.408;25.634;2023-12-20T06:40:43;1224.45;;;930.72;;
34711;SDS011;20941;42.408;25.634;2023-12-20T06:43:08;1224.13;;;933.78;;
34711;SDS011;20941;42.408;25.634;2023-12-20T06:45:34;1247.10;;;934.97;;
34711;SDS011;20941;42.408;25.634;2023-12-20T06:47:59;1238.20;;;932.67;;
34711;SDS011;20941;42.408;25.634;2023-12-20T06:50:25;1221.90;;;931.70;;
34711;SDS011;20941;42.408;25.634;2023-12-20T06:52:51;1224.68;;;932.33;;
34711;SDS011;20941;42.408;25.634;2023-12-20T06:55:17;1240.60;;;934.53;;
34711;SDS011;20941;42.408;25.634;2023-12-20T06:59:53;1256.38;;;938.10;;
34711;SDS011;20941;42.408;25.634;2023-12-20T07:02:19;1216.88;;;913.35;;
34711;SDS011;20941;42.408;25.634;2023-12-20T07:04:46;1239.95;;;927.90;;
34711;SDS011;20941;42.408;25.634;2023-12-20T07:07:11;1123.10;;;830.95;;
34711;SDS011;20941;42.408;25.634;2023-12-20T07:09:37;1208.05;;;900.90;;
34711;SDS011;20941;42.408;25.634;2023-12-20T07:12:04;1227.03;;;924.83;;
34711;SDS011;20941;42.408;25.634;2023-12-20T07:14:29;1236.45;;;930.00;;
34711;SDS011;20941;42.408;25.634;2023-12-20T07:16:55;1202.25;;;906.72;;
34711;SDS011;20941;42.408;25.634;2023-12-20T07:19:21;969.25;;;716.30;;
34711;SDS011;20941;42.408;25.634;2023-12-20T07:21:46;1246.80;;;936.67;;
34711;SDS011;20941;42.408;25.634;2023-12-20T07:24:12;1248.00;;;935.35;;
34711;SDS011;20941;42.408;25.634;2023-12-20T07:26:37;1078.57;;;814.00;;
34711;SDS011;20941;42.408;25.634;2023-12-20T07:29:03;1111.85;;;828.40;;
34711;SDS011;20941;42.408;25.634;2023-12-20T07:31:29;1199.22;;;901.58;;
34711;SDS011;20941;42.408;25.634;2023-12-20T07:33:54;1232.32;;;929.50;;
34711;SDS011;20941;42.408;25.634;2023-12-20T07:36:20;1220.80;;;928.28;;
34711;SDS011;20941;42.408;25.634;2023-12-20T07:38:53;1122.05;;;841.63;;
34711;SDS011;20941;42.408;25.634;2023-12-20T07:41:19;1131.55;;;854.03;;
34711;SDS011;20941;42.408;25.634;2023-12-20T07:43:46;1107.70;;;835.20;;
34711;SDS011;20941;42.408;25.634;2023-12-20T07:46:12;961.83;;;728.70;;
34711;SDS011;20941;42.408;25.634;2023-12-20T07:48:37;942.65;;;715.00;;
34711;SDS011;20941;42.408;25.634;2023-12-20T07:51:06;1096.32;;;822.60;;
34711;SDS011;20941;42.408;25.634;2023-12-20T07:53:33;937.30;;;710.78;;
34711;SDS011;20941;42.408;25.634;2023-12-20T07:55:58;951.95;;;716.92;;
34711;SDS011;20941;42.408;25.634;2023-12-20T07:58:23;1015.22;;;762.45;;
34711;SDS011;20941;42.408;25.634;2023-12-20T08:00:49;1055.18;;;792.50;;
34711;SDS011;20941;42.408;25.634;2023-12-20T08:03:14;1136.10;;;865.38;;
34711;SDS011;20941;42.408;25.634;2023-12-20T08:05:40;1159.68;;;878.42;;
34711;SDS011;20941;42.408;25.634;2023-12-20T08:08:06;1167.32;;;889.30;;
34711;SDS011;20941;42.408;25.634;2023-12-20T08:10:31;1184.43;;;906.47;;
34711;SDS011;20941;42.408;25.634;2023-12-20T08:12:57;1156.93;;;874.30;;
34711;SDS011;20941;42.408;25.634;2023-12-20T08:15:22;1167.95;;;891.80;;
34711;SDS011;20941;42.408;25.634;2023-12-20T08:17:48;1144.68;;;862.25;;
34711;SDS011;20941;42.408;25.634;2023-12-20T08:20:16;1133.07;;;860.15;;
34711;SDS011;20941;42.408;25.634;2023-12-20T08:22:41;1002.13;;;760.38;;
34711;SDS011;20941;42.408;25.634;2023-12-20T08:25:07;1141.28;;;868.13;;
34711;SDS011;20941;42.408;25.634;2023-12-20T08:27:33;1172.43;;;896.97;;
34711;SDS011;20941;42.408;25.634;2023-12-20T08:29:59;1135.43;;;860.20;;
34711;SDS011;20941;42.408;25.634;2023-12-20T08:32:27;1150.68;;;885.25;;
34711;SDS011;20941;42.408;25.634;2023-12-20T08:34:52;1038.75;;;799.28;;
34711;SDS011;20941;42.408;25.634;2023-12-20T08:37:18;897.22;;;689.92;;
34711;SDS011;20941;42.408;25.634;2023-12-20T08:39:43;992.88;;;760.15;;
34711;SDS011;20941;42.408;25.634;2023-12-20T08:42:09;980.00;;;753.05;;
34711;SDS011;20941;42.408;25.634;2023-12-20T08:44:35;1128.38;;;857.75;;
34711;SDS011;20941;42.408;25.634;2023-12-20T08:47:00;1116.63;;;847.72;;
34711;SDS011;20941;42.408;25.634;2023-12-20T08:49:25;1126.93;;;854.15;;
34711;SDS011;20941;42.408;25.634;2023-12-20T08:51:51;1145.22;;;867.53;;
34711;SDS011;20941;42.408;25.634;2023-12-20T08:54:16;1117.63;;;844.53;;
34711;SDS011;20941;42.408;25.634;2023-12-20T08:56:42;1152.35;;;871.85;;
34711;SDS011;20941;42.408;25.634;2023-12-20T08:59:08;1147.60;;;866.78;;
34711;SDS011;20941;42.408;25.634;2023-12-20T09:01:34;1160.82;;;883.40;;
34711;SDS011;20941;42.408;25.634;2023-12-20T09:04:00;1120.13;;;854.05;;
34711;SDS011;20941;42.408;25.634;2023-12-20T09:06:25;1140.18;;;866.08;;
34711;SDS011;20941;42.408;25.634;2023-12-20T09:08:51;1110.90;;;840.42;;
34711;SDS011;20941;42.408;25.634;2023-12-20T09:11:16;1122.72;;;845.70;;
34711;SDS011;20941;42.408;25.634;2023-12-20T09:13:42;1098.82;;;830.60;;
34711;SDS011;20941;42.408;25.634;2023-12-20T09:16:09;1056.45;;;797.70;;
34711;SDS011;20941;42.408;25.634;2023-12-20T09:18:35;1148.03;;;863.95;;
34711;SDS011;20941;42.408;25.634;2023-12-20T09:21:00;1162.07;;;878.78;;
34711;SDS011;20941;42.408;25.634;2023-12-20T09:23:27;1141.38;;;870.17;;
34711;SDS011;20941;42.408;25.634;2023-12-20T09:25:52;1137.38;;;859.95;;
34711;SDS011;20941;42.408;25.634;2023-12-20T09:28:18;1052.00;;;800.35;;
34711;SDS011;20941;42.408;25.634;2023-12-20T09:30:43;1056.57;;;802.65;;
34711;SDS011;20941;42.408;25.634;2023-12-20T09:33:10;1163.60;;;891.28;;
34711;SDS011;20941;42.408;25.634;2023-12-20T09:35:36;1197.90;;;921.03;;
34711;SDS011;20941;42.408;25.634;2023-12-20T09:38:01;1184.72;;;914.97;;
34711;SDS011;20941;42.408;25.634;2023-12-20T09:40:27;1192.57;;;918.90;;
34711;SDS011;20941;42.408;25.634;2023-12-20T09:42:56;1147.65;;;871.97;;
34711;SDS011;20941;42.408;25.634;2023-12-20T09:45:22;1160.30;;;888.67;;
34711;SDS011;20941;42.408;25.634;2023-12-20T09:47:54;1146.90;;;875.08;;
34711;SDS011;20941;42.408;25.634;2023-12-20T09:50:20;1127.88;;;863.72;;
34711;SDS011;20941;42.408;25.634;2023-12-20T09:52:46;1160.38;;;888.63;;
34711;SDS011;20941;42.408;25.634;2023-12-20T09:55:13;1157.88;;;885.28;;
34711;SDS011;20941;42.408;25.634;2023-12-20T09:57:39;1085.97;;;828.80;;
34711;SDS011;20941;42.408;25.634;2023-12-20T10:00:05;1132.00;;;865.80;;
34711;SDS011;20941;42.408;25.634;2023-12-20T10:02:31;1079.53;;;825.70;;
34711;SDS011;20941;42.408;25.634;2023-12-20T10:04:57;994.97;;;762.08;;
34711;SDS011;20941;42.408;25.634;2023-12-20T10:07:23;976.28;;;746.50;;
34711;SDS011;20941;42.408;25.634;2023-12-20T10:09:48;842.80;;;647.58;;
34711;SDS011;20941;42.408;25.634;2023-12-20T10:12:14;542.72;;;345.10;;
34711;SDS011;20941;42.408;25.634;2023-12-20T10:14:39;727.85;;;558.70;;
34711;SDS011;20941;42.408;25.634;2023-12-20T10:17:05;667.45;;;481.02;;
34711;SDS011;20941;42.408;25.634;2023-12-20T10:19:31;709.45;;;531.92;;
34711;SDS011;20941;42.408;25.634;2023-12-20T10:21:57;712.05;;;530.25;;
34711;SDS011;20941;42.408;25.634;2023-12-20T10:24:23;112.70;;;63.60;;
34711;SDS011;20941;42.408;25.634;2023-12-20T10:26:48;219.40;;;130.13;;
34711;SDS011;20941;42.408;25.634;2023-12-20T10:29:26;256.40;;;144.23;;
34711;SDS011;20941;42.408;25.634;2023-12-20T10:31:51;283.10;;;157.05;;
34711;SDS011;20941;42.408;25.634;2023-12-20T10:34:22;317.50;;;177.48;;
34711;SDS011;20941;42.408;25.634;2023-12-20T10:36:48;326.80;;;183.05;;
34711;SDS011;20941;42.408;25.634;2023-12-20T10:39:13;394.75;;;230.27;;
34711;SDS011;20941;42.408;25.634;2023-12-20T10:41:39;329.90;;;185.40;;
34711;SDS011;20941;42.408;25.634;2023-12-20T10:44:06;190.35;;;110.47;;
34711;SDS011;20941;42.408;25.634;2023-12-20T10:46:33;291.63;;;164.57;;
34711;SDS011;20941;42.408;25.634;2023-12-20T10:48:59;415.02;;;238.65;;
34711;SDS011;20941;42.408;25.634;2023-12-20T10:51:25;274.10;;;152.02;;
34711;SDS011;20941;42.408;25.634;2023-12-20T10:53:57;204.18;;;119.65;;
34711;SDS011;20941;42.408;25.634;2023-12-20T10:56:22;365.10;;;207.55;;
34711;SDS011;20941;42.408;25.634;2023-12-20T10:58:51;292.38;;;156.73;;
34711;SDS011;20941;42.408;25.634;2023-12-20T11:01:17;418.15;;;242.63;;
34711;SDS011;20941;42.408;25.634;2023-12-20T11:03:50;525.92;;;316.42;;
34711;SDS011;20941;42.408;25.634;2023-12-20T11:09:10;460.85;;;269.55;;
34711;SDS011;20941;42.408;25.634;2023-12-20T11:14:15;426.55;;;243.20;;
34711;SDS011;20941;42.408;25.634;2023-12-20T11:16:42;423.35;;;239.70;;
34711;SDS011;20941;42.408;25.634;2023-12-20T11:19:07;419.00;;;243.02;;
34711;SDS011;20941;42.408;25.634;2023-12-20T11:21:33;516.90;;;328.33;;
34711;SDS011;20941;42.408;25.634;2023-12-20T11:23:59;445.05;;;260.05;;
34711;SDS011;20941;42.408;25.634;2023-12-20T11:26:28;495.35;;;297.45;;
34711;SDS011;20941;42.408;25.634;2023-12-20T11:28:54;659.95;;;474.35;;
34711;SDS011;20941;42.408;25.634;2023-12-20T11:31:19;682.15;;;496.88;;
34711;SDS011;20941;42.408;25.634;2023-12-20T11:33:44;687.75;;;504.05;;
34711;SDS011;20941;42.408;25.634;2023-12-20T11:36:14;620.70;;;423.58;;
34711;SDS011;20941;42.408;25.634;2023-12-20T11:38:58;682.63;;;500.50;;
34711;SDS011;20941;42.408;25.634;2023-12-20T11:41:25;697.27;;;498.47;;
34711;SDS011;20941;42.408;25.634;2023-12-20T11:43:55;838.25;;;636.33;;
34711;SDS011;20941;42.408;25.634;2023-12-20T11:46:21;857.35;;;645.63;;
34711;SDS011;20941;42.408;25.634;2023-12-20T11:48:46;901.03;;;683.83;;
34711;SDS011;20941;42.408;25.634;2023-12-20T11:51:13;891.63;;;676.70;;
34711;SDS011;20941;42.408;25.634;2023-12-20T11:53:39;647.85;;;467.67;;
34711;SDS011;20941;42.408;25.634;2023-12-20T11:56:05;810.70;;;609.53;;
34711;SDS011;20941;42.408;25.634;2023-12-20T11:58:31;1011.10;;;761.33;;
34711;SDS011;20941;42.408;25.634;2023-12-20T12:00:57;1074.72;;;803.13;;
34711;SDS011;20941;42.408;25.634;2023-12-20T12:03:22;1082.72;;;813.78;;
34711;SDS011;20941;42.408;25.634;2023-12-20T12:05:49;1106.82;;;831.38;;
34711;SDS011;20941;42.408;25.634;2023-12-20T12:08:14;1082.20;;;812.83;;
34711;SDS011;20941;42.408;25.634;2023-12-20T12:10:40;1080.38;;;808.17;;
34711;SDS011;20941;42.408;25.634;2023-12-20T12:13:05;921.78;;;685.42;;
34711;SDS011;20941;42.408;25.634;2023-12-20T12:15:31;1004.00;;;753.40;;
34711;SDS011;20941;42.408;25.634;2023-12-20T12:17:57;994.63;;;749.55;;
34711;SDS011;20941;42.408;25.634;2023-12-20T12:20:23;1086.82;;;817.22;;
34711;SDS011;20941;42.408;25.634;2023-12-20T12:23:02;1123.22;;;846.30;;
34711;SDS011;20941;42.408;25.634;2023-12-20T12:25:28;1116.97;;;840.55;;
34711;SDS011;20941;42.408;25.634;2023-12-20T12:27:55;1080.93;;;815.65;;
34711;SDS011;20941;42.408;25.634;2023-12-20T12:30:20;883.13;;;663.28;;
34711;SDS011;20941;42.408;25.634;2023-12-20T12:32:46;1118.95;;;836.05;;
34711;SDS011;20941;42.408;25.634;2023-12-20T12:35:11;1059.05;;;787.60;;
34711;SDS011;20941;42.408;25.634;2023-12-20T12:37:37;888.90;;;661.05;;
34711;SDS011;20941;42.408;25.634;2023-12-20T12:40:04;1083.85;;;810.10;;
34711;SDS011;20941;42.408;25.634;2023-12-20T12:42:30;979.88;;;724.95;;
34711;SDS011;20941;42.408;25.634;2023-12-20T12:44:55;1006.60;;;758.22;;
34711;SDS011;20941;42.408;25.634;2023-12-20T12:47:24;1118.20;;;832.20;;
34711;SDS011;20941;42.408;25.634;2023-12-20T12:49:50;770.42;;;565.08;;
34711;SDS011;20941;42.408;25.634;2023-12-20T12:52:16;831.65;;;606.03;;
34711;SDS011;20941;42.408;25.634;2023-12-20T12:54:41;1183.50;;;885.13;;
34711;SDS011;20941;42.408;25.634;2023-12-20T12:57:07;725.88;;;534.80;;
34711;SDS011;20941;42.408;25.634;2023-12-20T12:59:33;683.60;;;485.35;;
34711;SDS011;20941;42.408;25.634;2023-12-20T13:01:58;396.67;;;229.30;;
34711;SDS011;20941;42.408;25.634;2023-12-20T13:04:24;790.75;;;559.95;;
34711;SDS011;20941;42.408;25.634;2023-12-20T13:06:49;654.33;;;469.40;;
34711;SDS011;20941;42.408;25.634;2023-12-20T13:09:14;758.60;;;527.17;;
34711;SDS011;20941;42.408;25.634;2023-12-20T13:11:40;773.10;;;551.25;;
34711;SDS011;20941;42.408;25.634;2023-12-20T13:14:06;1166.78;;;876.67;;
34711;SDS011;20941;42.408;25.634;2023-12-20T13:16:32;1205.60;;;910.40;;
34711;SDS011;20941;42.408;25.634;2023-12-20T13:18:59;1230.10;;;923.67;;
34711;SDS011;20941;42.408;25.634;2023-12-20T13:21:25;1238.35;;;925.00;;
34711;SDS011;20941;42.408;25.634;2023-12-20T13:23:50;1234.65;;;919.85;;
34711;SDS011;20941;42.408;25.634;2023-12-20T13:26:15;1236.95;;;924.45;;
34711;SDS011;20941;42.408;25.634;2023-12-20T13:28:41;959.72;;;712.47;;
34711;SDS011;20941;42.408;25.634;2023-12-20T13:31:07;1151.60;;;860.35;;
34711;SDS011;20941;42.408;25.634;2023-12-20T13:33:32;1079.40;;;805.92;;
34711;SDS011;20941;42.408;25.634;2023-12-20T13:35:58;1184.15;;;886.45;;
34711;SDS011;20941;42.408;25.634;2023-12-20T13:38:24;1180.88;;;882.60;;